Time;durP1;ratioP1;P1;durP2;ratioP2;P2;SDS_P1;SDS_P2;PMS_P1;PMS_P2;Temp;Humidity;BMP_temperature;BMP_pressure;BME280_temperature;BME280_humidity;BME280_pressure;Samples;Min_cycle;Max_cycle;Signal;HPM_P1;HPM_P2
2023/12/15 00:00:04;;;;;;;2.13;1.30;;;20.70;38.30;;;;;;5030659;28;20071;-56
2023/12/15 00:02:37;;;;;;;2.00;1.20;;;20.70;38.30;;;;;;5029202;28;20103;-53
2023/12/15 00:05:03;;;;;;;1.60;1.10;;;20.70;38.40;;;;;;5027726;28;20022;-56
2023/12/15 00:07:28;;;;;;;1.88;1.25;;;20.70;38.40;;;;;;5030999;28;20037;-57
2023/12/15 00:09:54;;;;;;;2.13;1.08;;;20.70;38.40;;;;;;5032395;28;20022;-60
2023/12/15 00:12:20;;;;;;;2.35;1.10;;;20.70;38.40;;;;;;5031343;28;20018;-57
2023/12/15 00:14:46;;;;;;;2.55;1.23;;;20.70;38.40;;;;;;5032827;28;20456;-56
2023/12/15 00:17:12;;;;;;;2.05;1.30;;;20.70;38.40;;;;;;5030217;28;20375;-55
2023/12/15 00:19:38;;;;;;;1.58;1.10;;;20.70;38.40;;;;;;5029769;28;20041;-56
2023/12/15 00:22:03;;;;;;;1.67;1.20;;;20.60;38.40;;;;;;5030872;28;20408;-58
2023/12/15 00:24:29;;;;;;;1.83;1.25;;;20.60;38.40;;;;;;5032463;28;20125;-54
2023/12/15 00:26:55;;;;;;;2.00;1.20;;;20.70;38.40;;;;;;5032223;28;20448;-56
2023/12/15 00:29:22;;;;;;;1.50;1.20;;;20.70;38.40;;;;;;5031033;28;20822;-57
2023/12/15 00:31:47;;;;;;;1.80;1.13;;;20.60;38.40;;;;;;5031399;28;20040;-58
2023/12/15 00:34:13;;;;;;;1.92;0.93;;;20.60;38.50;;;;;;5032329;28;20344;-58
2023/12/15 00:36:39;;;;;;;1.40;1.10;;;20.60;38.40;;;;;;5030061;28;20025;-57
2023/12/15 00:39:05;;;;;;;2.38;1.27;;;20.60;38.40;;;;;;5032840;28;20100;-55
2023/12/15 00:41:30;;;;;;;2.00;1.17;;;20.70;38.50;;;;;;5029819;28;20052;-58
2023/12/15 00:43:56;;;;;;;2.17;1.02;;;20.60;38.50;;;;;;5030900;28;20025;-52
2023/12/15 00:46:22;;;;;;;2.53;1.10;;;20.60;38.50;;;;;;5031510;28;20034;-58
2023/12/15 00:48:48;;;;;;;2.97;1.27;;;20.60;38.50;;;;;;5032528;28;20040;-55
2023/12/15 00:51:14;;;;;;;2.03;1.45;;;20.60;38.50;;;;;;5035393;28;20021;-57
2023/12/15 00:53:39;;;;;;;2.00;1.08;;;20.60;38.60;;;;;;5036083;28;20033;-59
2023/12/15 00:56:06;;;;;;;1.67;1.08;;;20.60;38.60;;;;;;5036968;28;20432;-52
2023/12/15 00:58:32;;;;;;;2.33;1.30;;;20.60;38.60;;;;;;5034674;28;20120;-56
2023/12/15 01:00:57;;;;;;;2.45;1.20;;;20.60;38.70;;;;;;5035518;28;20426;-56
2023/12/15 01:03:23;;;;;;;1.58;1.10;;;20.60;38.70;;;;;;5036048;28;20029;-61
2023/12/15 01:05:50;;;;;;;2.78;1.67;;;20.60;38.70;;;;;;5035662;28;20502;-53
2023/12/15 01:08:16;;;;;;;2.15;1.40;;;20.60;38.70;;;;;;5034779;28;20073;-57
2023/12/15 01:10:42;;;;;;;3.30;1.42;;;20.60;38.80;;;;;;5035416;28;20025;-58
2023/12/15 01:13:08;;;;;;;2.10;1.45;;;20.50;38.70;;;;;;5035993;28;20029;-60
2023/12/15 01:15:34;;;;;;;2.35;1.30;;;20.60;38.80;;;;;;5035758;28;20095;-54
2023/12/15 01:18:00;;;;;;;2.60;1.42;;;20.60;38.80;;;;;;5039515;28;20030;-58
2023/12/15 01:20:26;;;;;;;2.55;1.60;;;20.50;38.80;;;;;;5031472;28;20052;-54
2023/12/15 01:22:52;;;;;;;2.08;1.30;;;20.60;38.90;;;;;;5035826;28;20482;-53
2023/12/15 01:25:17;;;;;;;2.80;1.45;;;20.50;38.90;;;;;;5038792;28;20083;-55
2023/12/15 01:27:43;;;;;;;2.20;1.30;;;20.50;38.90;;;;;;5032001;28;20032;-49
2023/12/15 01:30:09;;;;;;;2.42;1.60;;;20.50;39.00;;;;;;5030374;28;20028;-52
2023/12/15 01:32:35;;;;;;;3.05;1.63;;;20.50;39.00;;;;;;5033198;28;20037;-54
2023/12/15 01:35:01;;;;;;;2.72;1.73;;;20.50;39.00;;;;;;5035890;28;20025;-58
2023/12/15 01:37:26;;;;;;;2.83;1.70;;;20.50;39.00;;;;;;5035363;28;20025;-56
2023/12/15 01:39:52;;;;;;;2.08;1.55;;;20.50;39.10;;;;;;5035432;28;20057;-57
2023/12/15 01:42:18;;;;;;;1.60;1.40;;;20.50;39.10;;;;;;5034654;28;20072;-57
2023/12/15 01:44:44;;;;;;;2.47;1.55;;;20.50;39.10;;;;;;5035692;28;20037;-55
2023/12/15 01:47:13;;;;;;;2.80;1.92;;;20.50;39.20;;;;;;5032800;28;20049;-52
2023/12/15 01:49:39;;;;;;;3.15;1.73;;;20.50;39.20;;;;;;5030875;28;20160;-52
2023/12/15 01:52:05;;;;;;;2.28;1.63;;;20.50;39.30;;;;;;5034601;28;20108;-55
2023/12/15 01:54:31;;;;;;;2.42;1.80;;;20.50;39.90;;;;;;5032690;28;20025;-56
2023/12/15 01:56:57;;;;;;;2.38;1.75;;;20.50;39.30;;;;;;5033727;28;20041;-58
2023/12/15 01:59:23;;;;;;;2.50;1.90;;;20.40;39.30;;;;;;5027420;28;20037;-59
2023/12/15 02:01:48;;;;;;;3.92;2.10;;;20.50;39.40;;;;;;5034044;28;20032;-55
2023/12/15 02:04:14;;;;;;;2.97;1.95;;;20.50;39.40;;;;;;5033197;28;20033;-56
2023/12/15 02:06:40;;;;;;;2.83;1.92;;;20.40;39.40;;;;;;5031356;28;20029;-54
2023/12/15 02:09:07;;;;;;;2.38;1.88;;;20.50;39.40;;;;;;5031706;28;20025;-58
2023/12/15 02:11:32;;;;;;;2.42;1.83;;;20.40;39.40;;;;;;5031999;28;20045;-56
2023/12/15 02:13:58;;;;;;;3.70;2.17;;;20.40;39.50;;;;;;5032287;28;20068;-56
2023/12/15 02:16:24;;;;;;;3.25;2.25;;;20.40;39.50;;;;;;5033230;28;20026;-55
2023/12/15 02:18:49;;;;;;;3.90;2.08;;;20.50;39.60;;;;;;5031039;28;20045;-56
2023/12/15 02:21:15;;;;;;;2.90;2.15;;;20.40;39.50;;;;;;5033757;28;20029;-58
2023/12/15 02:23:41;;;;;;;3.10;2.33;;;20.40;39.50;;;;;;5034584;28;20025;-56
2023/12/15 02:26:07;;;;;;;3.63;2.47;;;20.40;39.60;;;;;;5031966;28;20022;-57
2023/12/15 02:28:33;;;;;;;4.78;3.03;;;20.40;39.60;;;;;;5029214;28;20412;-56
2023/12/15 02:30:58;;;;;;;3.58;2.03;;;20.40;39.60;;;;;;5034656;28;20095;-59
2023/12/15 02:33:24;;;;;;;3.42;2.20;;;20.40;39.70;;;;;;5029219;28;20053;-55
2023/12/15 02:35:50;;;;;;;3.60;2.10;;;20.40;39.70;;;;;;5033220;28;20037;-52
2023/12/15 02:38:18;;;;;;;4.07;2.72;;;20.40;39.70;;;;;;5031431;28;20026;-54
2023/12/15 02:40:44;;;;;;;3.80;2.63;;;20.40;39.70;;;;;;5032540;28;20033;-58
2023/12/15 02:43:13;;;;;;;5.03;2.45;;;20.40;39.80;;;;;;5031585;28;20432;-57
2023/12/15 02:45:39;;;;;;;3.65;2.40;;;20.40;39.80;;;;;;5032886;28;20148;-54
2023/12/15 02:48:04;;;;;;;4.20;2.30;;;20.40;39.80;;;;;;5034229;28;20048;-55
2023/12/15 02:50:30;;;;;;;3.70;2.60;;;20.40;39.80;;;;;;5033860;28;20104;-57
2023/12/15 02:52:56;;;;;;;4.00;2.38;;;20.40;39.80;;;;;;5033778;28;20017;-57
2023/12/15 02:55:22;;;;;;;3.65;2.80;;;20.40;39.90;;;;;;5031895;28;20029;-57
2023/12/15 02:57:48;;;;;;;5.05;3.17;;;20.40;39.90;;;;;;5037310;28;20037;-58
2023/12/15 03:00:16;;;;;;;3.80;2.75;;;20.40;39.90;;;;;;5029171;28;20078;-58
2023/12/15 03:02:42;;;;;;;4.93;3.22;;;20.40;40.00;;;;;;5029835;28;20349;-59
2023/12/15 03:05:08;;;;;;;5.13;3.20;;;20.40;40.00;;;;;;5033832;28;20033;-59
2023/12/15 03:07:34;;;;;;;5.22;2.90;;;20.40;40.00;;;;;;5031332;28;20037;-56
2023/12/15 03:10:00;;;;;;;4.40;2.92;;;20.40;40.00;;;;;;5032791;28;20458;-54
2023/12/15 03:12:25;;;;;;;5.95;3.42;;;20.30;40.00;;;;;;5033968;28;20021;-56
2023/12/15 03:14:51;;;;;;;3.90;2.90;;;20.30;40.00;;;;;;5032845;28;20048;-56
2023/12/15 03:17:17;;;;;;;4.32;3.25;;;20.30;40.00;;;;;;5033436;28;20025;-54
2023/12/15 03:19:43;;;;;;;5.13;3.38;;;20.40;40.10;;;;;;5030730;28;20060;-56
2023/12/15 03:22:09;;;;;;;6.90;3.45;;;20.40;40.20;;;;;;5028257;28;20061;-58
2023/12/15 03:24:35;;;;;;;5.60;3.17;;;20.30;40.10;;;;;;5033463;28;20025;-54
2023/12/15 03:27:00;;;;;;;4.63;3.10;;;20.30;40.10;;;;;;5033317;28;20083;-53
2023/12/15 03:29:26;;;;;;;4.72;3.38;;;20.30;40.20;;;;;;5031295;28;20439;-53
2023/12/15 03:31:52;;;;;;;5.90;3.53;;;20.30;40.20;;;;;;5027443;28;20028;-56
2023/12/15 03:34:18;;;;;;;5.97;3.47;;;20.30;40.30;;;;;;5031734;28;20411;-56
2023/12/15 03:36:43;;;;;;;5.20;3.25;;;20.30;40.20;;;;;;5033484;28;20025;-57
2023/12/15 03:39:09;;;;;;;5.32;3.47;;;20.30;40.30;;;;;;5032260;28;20048;-56
2023/12/15 03:41:35;;;;;;;5.13;3.42;;;20.30;40.30;;;;;;5031100;28;20493;-56
2023/12/15 03:44:01;;;;;;;5.72;3.85;;;20.30;40.30;;;;;;5031637;28;20079;-59
2023/12/15 03:46:27;;;;;;;5.70;3.40;;;20.30;40.30;;;;;;5030767;28;20436;-58
2023/12/15 03:48:52;;;;;;;5.63;3.25;;;20.30;40.40;;;;;;5030305;28;20041;-58
2023/12/15 03:51:18;;;;;;;5.35;3.38;;;20.30;40.40;;;;;;5028793;28;20021;-55
2023/12/15 03:53:44;;;;;;;8.38;4.10;;;20.30;40.40;;;;;;5032616;28;20056;-56
2023/12/15 03:56:10;;;;;;;4.80;3.33;;;20.30;40.50;;;;;;5030204;28;20029;-56
2023/12/15 03:58:36;;;;;;;5.47;3.45;;;20.30;40.50;;;;;;5030760;28;20113;-54
2023/12/15 04:01:02;;;;;;;7.32;3.75;;;20.30;40.50;;;;;;5028334;28;20095;-57
2023/12/15 04:03:28;;;;;;;6.18;3.75;;;20.30;40.50;;;;;;5032590;28;20037;-59
2023/12/15 04:05:54;;;;;;;7.68;3.78;;;20.30;40.50;;;;;;5030385;28;20017;-57
2023/12/15 04:08:19;;;;;;;5.93;4.00;;;20.30;40.60;;;;;;5032129;28;20029;-57
2023/12/15 04:10:45;;;;;;;5.05;3.97;;;20.30;40.60;;;;;;5031770;28;20033;-58
2023/12/15 04:13:11;;;;;;;7.00;4.10;;;20.30;40.60;;;;;;5014187;28;20428;-50
2023/12/15 04:15:38;;;;;;;6.35;4.07;;;20.30;40.70;;;;;;5032516;28;20025;-56
2023/12/15 04:18:04;;;;;;;6.13;3.75;;;20.30;40.70;;;;;;5031076;28;20087;-54
2023/12/15 04:20:30;;;;;;;7.93;4.97;;;20.30;40.70;;;;;;5030111;28;20483;-52
2023/12/15 04:22:57;;;;;;;6.22;3.97;;;20.30;40.70;;;;;;5033444;28;20041;-56
2023/12/15 04:25:23;;;;;;;6.95;4.32;;;20.30;40.70;;;;;;5035464;28;20021;-57
2023/12/15 04:27:48;;;;;;;7.75;4.57;;;20.30;40.80;;;;;;5034482;28;20419;-48
2023/12/15 04:30:14;;;;;;;5.78;4.22;;;20.30;40.80;;;;;;5035316;28;20134;-55
2023/12/15 04:32:40;;;;;;;7.68;4.47;;;20.30;40.80;;;;;;5037018;28;20030;-59
2023/12/15 04:35:06;;;;;;;6.38;4.53;;;20.20;40.80;;;;;;5031885;28;20076;-52
2023/12/15 04:37:32;;;;;;;7.28;4.78;;;20.20;40.80;;;;;;5037153;28;20025;-56
2023/12/15 04:39:58;;;;;;;7.43;4.65;;;20.30;40.90;;;;;;5034485;28;20037;-55
2023/12/15 04:42:24;;;;;;;6.65;4.15;;;20.20;40.90;;;;;;5036873;28;20032;-57
2023/12/15 04:44:50;;;;;;;8.15;4.78;;;20.30;41.00;;;;;;5033857;28;20038;-56
2023/12/15 04:47:16;;;;;;;7.35;4.40;;;20.20;40.90;;;;;;5036039;28;20125;-54
2023/12/15 04:49:42;;;;;;;5.80;4.10;;;20.20;40.90;;;;;;5033629;28;20061;-57
2023/12/15 04:52:08;;;;;;;6.68;4.40;;;20.20;41.00;;;;;;5036696;28;20074;-57
2023/12/15 04:54:34;;;;;;;5.70;4.22;;;20.20;41.00;;;;;;5035936;28;20365;-57
2023/12/15 04:56:59;;;;;;;8.02;4.28;;;20.20;41.00;;;;;;5033446;28;20125;-56
2023/12/15 04:59:25;;;;;;;7.13;4.47;;;20.20;41.60;;;;;;5034309;28;20048;-54
2023/12/15 05:01:51;;;;;;;7.07;4.30;;;20.20;41.10;;;;;;5035000;28;20107;-57
2023/12/15 05:04:17;;;;;;;7.05;4.53;;;20.20;41.10;;;;;;5032695;28;20087;-58
2023/12/15 05:06:43;;;;;;;7.25;4.53;;;20.20;41.10;;;;;;5033986;28;20098;-58
2023/12/15 05:09:09;;;;;;;6.93;4.32;;;20.20;41.10;;;;;;5033635;28;20025;-53
2023/12/15 05:11:36;;;;;;;7.82;4.50;;;20.20;41.10;;;;;;5034017;28;20514;-54
2023/12/15 05:14:02;;;;;;;4.90;4.05;;;20.20;41.20;;;;;;5035894;28;20021;-55
2023/12/15 05:16:30;;;;;;;6.95;4.65;;;20.20;41.20;;;;;;5033703;28;20435;-57
2023/12/15 05:18:56;;;;;;;6.97;4.53;;;20.20;41.20;;;;;;5029720;28;20364;-55
2023/12/15 05:21:22;;;;;;;6.35;4.50;;;20.20;41.20;;;;;;5034874;28;20022;-56
2023/12/15 05:23:48;;;;;;;6.45;4.50;;;20.20;41.20;;;;;;5029450;28;20345;-55
2023/12/15 05:26:15;;;;;;;7.38;4.10;;;20.20;41.30;;;;;;5034533;28;20052;-54
2023/12/15 05:28:41;;;;;;;5.80;3.88;;;20.20;41.30;;;;;;5032479;28;20052;-54
2023/12/15 05:31:07;;;;;;;6.30;4.05;;;20.10;41.20;;;;;;5034281;28;20025;-57
2023/12/15 05:33:33;;;;;;;4.13;3.35;;;20.20;41.30;;;;;;5033910;28;20336;-58
2023/12/15 05:35:58;;;;;;;5.82;3.75;;;20.20;41.30;;;;;;5031317;28;20021;-58
2023/12/15 05:38:24;;;;;;;4.90;3.60;;;20.20;41.40;;;;;;5031557;28;20360;-52
2023/12/15 05:40:52;;;;;;;6.63;4.15;;;20.10;41.30;;;;;;5033223;28;20429;-53
2023/12/15 05:43:18;;;;;;;5.65;3.58;;;20.10;41.30;;;;;;5035364;28;20326;-55
2023/12/15 05:45:46;;;;;;;4.70;3.75;;;20.10;41.40;;;;;;5034591;28;20028;-58
2023/12/15 05:48:12;;;;;;;6.07;3.75;;;20.10;41.40;;;;;;5032819;28;20120;-55
2023/12/15 05:50:38;;;;;;;5.90;3.75;;;20.10;41.40;;;;;;5032606;28;20100;-52
2023/12/15 05:53:04;;;;;;;4.68;3.17;;;20.10;41.50;;;;;;5033006;28;20511;-57
2023/12/15 05:55:29;;;;;;;4.72;3.40;;;20.10;41.50;;;;;;5034757;28;20057;-60
2023/12/15 05:57:55;;;;;;;4.65;3.50;;;20.10;41.50;;;;;;5032802;28;20025;-56
2023/12/15 06:00:21;;;;;;;4.88;3.45;;;20.10;41.50;;;;;;5031565;28;20369;-56
2023/12/15 06:02:47;;;;;;;3.70;3.08;;;20.10;41.50;;;;;;5031052;28;20109;-56
2023/12/15 06:05:12;;;;;;;5.10;3.75;;;20.10;41.50;;;;;;5035278;28;20014;-53
2023/12/15 06:07:40;;;;;;;4.78;3.78;;;20.20;41.60;;;;;;5032054;28;20577;-58
2023/12/15 06:10:06;;;;;;;8.07;4.15;;;20.10;41.60;;;;;;5031112;28;20340;-56
2023/12/15 06:12:32;;;;;;;5.65;3.80;;;20.10;41.60;;;;;;5033064;28;20029;-57
2023/12/15 06:14:58;;;;;;;4.28;3.45;;;20.10;41.60;;;;;;5029935;28;20033;-59
2023/12/15 06:17:23;;;;;;;5.55;3.78;;;20.10;41.60;;;;;;5033520;28;20033;-56
2023/12/15 06:19:49;;;;;;;6.63;4.20;;;20.10;41.60;;;;;;5032169;28;20056;-52
2023/12/15 06:22:15;;;;;;;5.18;3.55;;;20.10;41.70;;;;;;5036033;28;20025;-58
2023/12/15 06:24:41;;;;;;;4.93;3.78;;;20.10;41.70;;;;;;5033770;28;20033;-53
2023/12/15 06:27:07;;;;;;;7.15;4.22;;;20.10;41.70;;;;;;5033719;28;20116;-55
2023/12/15 06:29:32;;;;;;;5.00;3.50;;;20.10;41.70;;;;;;5033327;28;20034;-55
2023/12/15 06:31:58;;;;;;;7.28;4.47;;;20.10;41.80;;;;;;5030248;28;20037;-56
2023/12/15 06:34:24;;;;;;;5.78;3.67;;;20.10;41.80;;;;;;5033251;28;20025;-53
2023/12/15 06:36:50;;;;;;;5.43;3.90;;;20.10;41.80;;;;;;5030546;28;20061;-55
2023/12/15 06:39:15;;;;;;;5.93;4.32;;;20.10;41.80;;;;;;5033262;28;20436;-54
2023/12/15 06:41:41;;;;;;;4.97;4.30;;;20.10;41.80;;;;;;5031870;28;20029;-57
2023/12/15 06:44:07;;;;;;;5.70;3.90;;;20.10;41.80;;;;;;5027573;28;20057;-55
2023/12/15 06:46:36;;;;;;;6.05;3.97;;;20.10;41.90;;;;;;5032241;28;20530;-57
2023/12/15 06:49:02;;;;;;;6.45;4.20;;;20.10;41.90;;;;;;5035773;28;20032;-57
2023/12/15 06:51:29;;;;;;;6.63;4.40;;;20.10;41.90;;;;;;5028646;28;20025;-52
2023/12/15 06:53:54;;;;;;;6.00;4.18;;;20.10;41.90;;;;;;5029529;28;20360;-58
2023/12/15 06:56:20;;;;;;;6.43;4.40;;;20.10;41.90;;;;;;5032172;28;20029;-56
2023/12/15 06:58:46;;;;;;;6.75;4.13;;;20.10;41.90;;;;;;5029686;28;20507;-57
2023/12/15 07:01:13;;;;;;;5.82;4.30;;;20.10;41.90;;;;;;5033447;28;20025;-57
2023/12/15 07:03:39;;;;;;;6.50;3.55;;;20.10;42.00;;;;;;5032861;28;20029;-52
2023/12/15 07:06:06;;;;;;;8.07;4.45;;;20.10;42.00;;;;;;5028491;28;20348;-56
2023/12/15 07:08:32;;;;;;;7.50;4.20;;;20.10;42.00;;;;;;5026256;28;20048;-56
2023/12/15 07:10:58;;;;;;;5.93;3.80;;;20.10;42.00;;;;;;5028104;28;20428;-59
2023/12/15 07:13:24;;;;;;;5.97;3.88;;;20.00;42.00;;;;;;5022153;28;20364;-56
2023/12/15 07:15:52;;;;;;;5.72;4.40;;;20.10;42.00;;;;;;5032184;28;20033;-57
2023/12/15 07:18:18;;;;;;;6.75;4.88;;;20.00;42.00;;;;;;5030917;28;20021;-56
2023/12/15 07:20:44;;;;;;;6.28;4.10;;;20.00;42.00;;;;;;5027951;28;20423;-56
2023/12/15 07:23:09;;;;;;;5.70;4.05;;;20.00;42.10;;;;;;5040049;28;20044;-58
2023/12/15 07:25:37;;;;;;;5.90;3.97;;;20.00;42.10;;;;;;5032638;28;20168;-56
2023/12/15 07:28:04;;;;;;;6.45;4.07;;;20.00;42.10;;;;;;5028130;28;20556;-57
2023/12/15 07:30:30;;;;;;;6.57;3.95;;;20.00;42.10;;;;;;5031901;28;20220;-54
2023/12/15 07:32:56;;;;;;;6.82;4.32;;;20.00;42.10;;;;;;5031673;28;20023;-58
2023/12/15 07:35:23;;;;;;;8.30;4.95;;;20.00;42.20;;;;;;5034336;28;20025;-57
2023/12/15 07:37:51;;;;;;;8.75;4.60;;;20.00;42.20;;;;;;5016710;28;20029;-56
2023/12/15 07:40:17;;;;;;;4.97;3.80;;;20.00;42.20;;;;;;5031888;28;20069;-58
2023/12/15 07:42:42;;;;;;;5.13;3.72;;;20.00;42.20;;;;;;5034819;28;20118;-59
2023/12/15 07:45:09;;;;;;;6.10;3.55;;;20.00;42.20;;;;;;5032815;28;20025;-50
2023/12/15 07:47:34;;;;;;;6.30;4.05;;;20.00;42.30;;;;;;5032796;28;20061;-55
2023/12/15 07:50:00;;;;;;;5.07;3.75;;;20.00;42.30;;;;;;5027693;28;20056;-54
2023/12/15 07:52:26;;;;;;;5.85;3.88;;;20.00;42.30;;;;;;5034071;28;20018;-60
2023/12/15 07:54:52;;;;;;;5.60;3.80;;;20.00;42.30;;;;;;5033416;28;20032;-58
2023/12/15 07:57:19;;;;;;;5.20;3.30;;;20.00;42.30;;;;;;5032734;28;20030;-57
2023/12/15 07:59:45;;;;;;;5.57;3.40;;;20.00;42.40;;;;;;5030548;28;20040;-59
2023/12/15 08:02:12;;;;;;;4.88;3.30;;;20.00;42.50;;;;;;5015579;28;20021;-57
2023/12/15 08:04:38;;;;;;;4.38;2.90;;;20.00;42.40;;;;;;5034266;28;20452;-59
2023/12/15 08:07:04;;;;;;;5.18;3.30;;;20.00;42.50;;;;;;5032586;28;20041;-56
2023/12/15 08:09:30;;;;;;;4.00;3.00;;;20.00;42.50;;;;;;5027527;28;20095;-59
2023/12/15 08:11:56;;;;;;;5.00;3.33;;;20.00;42.50;;;;;;5033611;28;20025;-58
2023/12/15 08:14:22;;;;;;;5.70;3.38;;;20.10;42.60;;;;;;5028225;28;20475;-58
2023/12/15 08:16:48;;;;;;;4.22;3.08;;;20.10;42.50;;;;;;5025251;28;20064;-59
2023/12/15 08:19:14;;;;;;;5.57;3.38;;;20.10;42.50;;;;;;5024580;28;20484;-60
2023/12/15 08:21:40;;;;;;;5.88;3.53;;;20.10;42.50;;;;;;5031721;28;20037;-57
2023/12/15 08:24:06;;;;;;;4.90;3.03;;;20.20;42.50;;;;;;5028513;28;20078;-56
2023/12/15 08:26:33;;;;;;;4.93;2.75;;;20.20;42.50;;;;;;5031132;28;20543;-55
2023/12/15 08:28:59;;;;;;;4.30;3.05;;;20.30;42.50;;;;;;5028437;28;20061;-55
2023/12/15 08:31:25;;;;;;;4.97;3.00;;;20.30;42.50;;;;;;5022321;28;20053;-57
2023/12/15 08:33:52;;;;;;;6.20;2.78;;;20.30;42.50;;;;;;5025796;28;20452;-57
2023/12/15 08:36:18;;;;;;;4.63;2.70;;;20.30;42.40;;;;;;5016738;28;20044;-56
2023/12/15 08:38:43;;;;;;;5.60;2.90;;;20.40;42.40;;;;;;5024323;28;20038;-57
2023/12/15 08:41:10;;;;;;;4.75;2.95;;;20.40;42.40;;;;;;5032312;28;20033;-57
2023/12/15 08:43:36;;;;;;;4.28;2.83;;;20.40;42.30;;;;;;5037981;28;20364;-57
2023/12/15 08:46:02;;;;;;;3.53;2.38;;;20.50;42.30;;;;;;5029491;28;20152;-57
2023/12/15 08:48:28;;;;;;;3.20;2.30;;;20.50;42.30;;;;;;5022502;28;20401;-58
2023/12/15 08:50:54;;;;;;;6.18;3.25;;;20.50;42.30;;;;;;5015523;28;20105;-55
2023/12/15 08:53:20;;;;;;;4.60;2.95;;;20.50;42.30;;;;;;5014478;28;20053;-57
2023/12/15 08:55:46;;;;;;;4.80;2.85;;;20.50;42.20;;;;;;5014681;28;20029;-57
2023/12/15 08:58:12;;;;;;;4.60;2.40;;;20.50;42.20;;;;;;5019562;28;20021;-57
2023/12/15 09:00:39;;;;;;;3.67;2.50;;;20.60;42.20;;;;;;5022984;28;20085;-57
2023/12/15 09:03:05;;;;;;;3.80;2.45;;;20.60;42.20;;;;;;5023911;28;20314;-58
2023/12/15 09:05:32;;;;;;;4.10;2.70;;;20.60;42.10;;;;;;5031397;28;20034;-58
2023/12/15 09:07:59;;;;;;;3.42;2.58;;;20.60;42.10;;;;;;5024563;28;20449;-53
2023/12/15 09:10:25;;;;;;;4.38;2.55;;;20.70;42.10;;;;;;5034529;28;20033;-59
2023/12/15 09:12:52;;;;;;;4.35;2.80;;;20.70;42.10;;;;;;5027762;28;20038;-56
2023/12/15 09:15:18;;;;;;;4.97;3.03;;;20.70;42.10;;;;;;5020384;28;20022;-54
2023/12/15 09:17:45;;;;;;;3.88;2.67;;;20.70;42.10;;;;;;5027735;28;21314;-58
2023/12/15 09:20:12;;;;;;;5.45;2.90;;;20.70;42.00;;;;;;5035102;28;20049;-57
2023/12/15 09:22:40;;;;;;;7.38;3.15;;;20.70;42.00;;;;;;5037857;28;20026;-55
2023/12/15 09:25:07;;;;;;;4.90;3.03;;;20.70;42.10;;;;;;5033940;28;20144;-54
2023/12/15 09:27:33;;;;;;;4.70;2.70;;;20.80;42.10;;;;;;5037683;28;20440;-55
2023/12/15 09:29:59;;;;;;;3.67;2.55;;;20.80;42.10;;;;;;5035992;28;20029;-56
2023/12/15 09:32:25;;;;;;;5.38;3.00;;;20.80;42.10;;;;;;5036093;28;20090;-56
2023/12/15 09:34:51;;;;;;;4.47;2.75;;;20.80;42.10;;;;;;5035111;28;20044;-52
2023/12/15 09:37:17;;;;;;;4.72;2.80;;;20.80;42.10;;;;;;5035903;28;20035;-57
2023/12/15 09:39:43;;;;;;;4.60;2.92;;;20.80;42.00;;;;;;5037466;28;20034;-53
2023/12/15 09:42:09;;;;;;;5.30;3.15;;;20.80;42.00;;;;;;5037555;28;20120;-54
2023/12/15 09:44:35;;;;;;;3.22;2.38;;;20.80;42.00;;;;;;5037890;28;20466;-54
2023/12/15 09:47:02;;;;;;;4.55;2.60;;;20.80;42.00;;;;;;5037361;28;20105;-58
2023/12/15 09:49:31;;;;;;;4.40;2.55;;;20.80;42.00;;;;;;5037375;28;20030;-55
2023/12/15 09:52:02;;;;;;;3.92;2.47;;;20.80;42.00;;;;;;5037210;28;20425;-51
2023/12/15 09:54:28;;;;;;;4.00;2.42;;;20.80;42.00;;;;;;5037224;28;20087;-52
2023/12/15 09:56:55;;;;;;;5.47;2.72;;;20.80;42.00;;;;;;5032363;28;20054;-50
2023/12/15 09:59:22;;;;;;;3.75;2.20;;;20.80;42.00;;;;;;5017633;28;20421;-55
2023/12/15 10:01:48;;;;;;;2.95;2.13;;;20.90;42.00;;;;;;5017417;28;20456;-53
2023/12/15 10:04:14;;;;;;;3.30;2.60;;;20.90;42.10;;;;;;5017472;28;20033;-51
2023/12/15 10:06:40;;;;;;;4.07;2.65;;;20.90;42.10;;;;;;5020583;28;20080;-50
2023/12/15 10:09:15;;;;;;;4.43;2.67;;;20.80;42.00;;;;;;5020871;28;20092;-58
2023/12/15 10:11:44;;;;;;;4.63;2.13;;;20.80;42.00;;;;;;5017038;28;20021;-53
2023/12/15 10:14:19;;;;;;;2.85;2.10;;;20.90;42.10;;;;;;5036733;28;20022;-56
2023/12/15 10:16:46;;;;;;;6.05;2.80;;;20.90;42.10;;;;;;5032040;28;20041;-57
2023/12/15 10:19:12;;;;;;;4.63;1.98;;;20.90;42.10;;;;;;5034068;28;20045;-56
2023/12/15 10:21:38;;;;;;;5.97;2.00;;;20.80;42.20;;;;;;5033680;28;20047;-58
2023/12/15 10:24:24;;;;;;;4.30;2.42;;;20.90;42.50;;;;;;5038972;28;20013;-54
2023/12/15 10:26:50;;;;;;;6.53;2.70;;;20.90;42.60;;;;;;5025450;28;20449;-58
2023/12/15 10:29:20;;;;;;;3.83;2.25;;;20.90;42.60;;;;;;5032771;28;20461;-55
2023/12/15 10:31:50;;;;;;;5.60;2.20;;;20.90;42.60;;;;;;5049214;28;20048;-57
2023/12/15 10:34:16;;;;;;;4.15;2.30;;;20.90;42.60;;;;;;5030041;28;20029;-61
2023/12/15 10:36:46;;;;;;;2.40;1.60;;;20.90;42.60;;;;;;5030944;28;20060;-57
2023/12/15 10:39:17;;;;;;;3.08;1.83;;;20.90;42.60;;;;;;5026025;28;20084;-57
2023/12/15 10:41:44;;;;;;;3.25;1.80;;;20.90;42.50;;;;;;5023406;28;20107;-58
2023/12/15 10:44:13;;;;;;;3.50;2.08;;;20.90;42.50;;;;;;5028009;28;20033;-58
2023/12/15 10:46:43;;;;;;;3.85;2.05;;;20.90;42.50;;;;;;5032192;28;20025;-57
2023/12/15 10:49:11;;;;;;;4.07;1.98;;;20.90;42.50;;;;;;5022161;28;20030;-57
2023/12/15 10:51:41;;;;;;;3.22;1.65;;;20.90;42.50;;;;;;5034157;28;20021;-56
2023/12/15 10:54:08;;;;;;;2.55;1.70;;;20.90;42.50;;;;;;5029078;28;20469;-59
2023/12/15 10:56:39;;;;;;;3.95;2.10;;;20.90;42.50;;;;;;5019514;28;20026;-59
2023/12/15 10:59:06;;;;;;;3.20;2.03;;;20.90;42.50;;;;;;5029424;28;20037;-61
2023/12/15 11:01:35;;;;;;;3.90;1.83;;;20.90;42.50;;;;;;5038336;28;20029;-60
2023/12/15 11:04:00;;;;;;;3.58;1.90;;;20.90;42.50;;;;;;5017057;28;20181;-56
2023/12/15 11:06:30;;;;;;;3.67;2.05;;;20.90;42.50;;;;;;5047752;28;20202;-57
2023/12/15 11:09:00;;;;;;;3.08;1.73;;;20.90;42.60;;;;;;5020200;28;20030;-59
2023/12/15 11:11:29;;;;;;;4.40;2.03;;;20.90;42.60;;;;;;5020529;28;20056;-59
2023/12/15 11:14:05;;;;;;;4.63;1.98;;;20.90;42.60;;;;;;5022472;28;20517;-56
2023/12/15 11:16:35;;;;;;;4.28;1.85;;;20.90;42.60;;;;;;5032754;28;20444;-56
2023/12/15 11:19:01;;;;;;;2.67;1.50;;;20.90;42.60;;;;;;5026139;28;20080;-59
2023/12/15 11:21:28;;;;;;;3.92;1.73;;;20.90;42.60;;;;;;5037997;28;20025;-58
2023/12/15 11:23:59;;;;;;;4.28;1.80;;;20.90;42.60;;;;;;5018587;28;20372;-58
2023/12/15 11:26:33;;;;;;;3.55;1.75;;;20.90;42.70;;;;;;5031441;28;20025;-57
2023/12/15 11:29:03;;;;;;;3.42;1.60;;;20.90;42.70;;;;;;5026777;28;20047;-57
2023/12/15 11:31:33;;;;;;;3.10;1.60;;;20.90;42.70;;;;;;5024773;28;20017;-61
2023/12/15 11:34:03;;;;;;;3.30;1.77;;;20.90;42.70;;;;;;5032298;28;20022;-56
2023/12/15 11:36:51;;;;;;;5.25;1.92;;;20.90;42.80;;;;;;5026355;28;20452;-57
2023/12/15 11:39:17;;;;;;;5.18;2.35;;;20.90;42.80;;;;;;5048666;28;20033;-61
2023/12/15 11:41:44;;;;;;;6.85;1.95;;;20.90;42.80;;;;;;5030891;28;20524;-56
2023/12/15 11:44:10;;;;;;;3.78;1.80;;;20.90;42.80;;;;;;5034286;28;20411;-56
2023/12/15 11:46:36;;;;;;;4.57;2.22;;;20.90;42.80;;;;;;5025264;28;20034;-59
2023/12/15 11:49:01;;;;;;;3.35;1.88;;;20.90;42.80;;;;;;5019505;28;20033;-60
2023/12/15 11:51:30;;;;;;;4.43;2.10;;;20.90;42.90;;;;;;5023811;28;20107;-57
2023/12/15 11:54:00;;;;;;;5.43;2.15;;;20.90;42.80;;;;;;5039414;28;20356;-57
2023/12/15 11:56:27;;;;;;;3.92;1.92;;;20.90;42.80;;;;;;5030272;28;20161;-56
2023/12/15 11:58:53;;;;;;;2.20;1.50;;;20.90;42.80;;;;;;5029797;28;20422;-56
2023/12/15 12:01:19;;;;;;;4.85;2.20;;;20.90;42.80;;;;;;5028601;28;20131;-56
2023/12/15 12:03:45;;;;;;;4.85;2.22;;;20.90;42.80;;;;;;5032702;28;20075;-56
2023/12/15 12:06:11;;;;;;;2.67;1.70;;;20.90;42.80;;;;;;5025987;28;20054;-58
2023/12/15 12:08:37;;;;;;;2.92;1.55;;;20.90;42.80;;;;;;5024070;28;20434;-55
2023/12/15 12:11:04;;;;;;;4.18;1.60;;;20.90;42.90;;;;;;5017083;28;20030;-57
2023/12/15 12:13:35;;;;;;;3.88;2.10;;;20.90;42.90;;;;;;5028634;28;20057;-56
2023/12/15 12:16:01;;;;;;;2.55;1.33;;;20.90;42.90;;;;;;5025257;28;20025;-55
2023/12/15 12:18:28;;;;;;;4.50;1.90;;;20.90;42.90;;;;;;5024875;28;20045;-57
2023/12/15 12:20:55;;;;;;;4.43;1.65;;;20.90;43.00;;;;;;5014664;28;20053;-52
2023/12/15 12:23:28;;;;;;;3.50;1.70;;;20.90;43.10;;;;;;5020267;28;20119;-53
2023/12/15 12:25:57;;;;;;;8.88;1.98;;;20.90;43.00;;;;;;5028524;28;20043;-54
2023/12/15 12:28:40;;;;;;;3.80;1.95;;;20.90;43.00;;;;;;5020840;28;20022;-55
2023/12/15 12:31:06;;;;;;;3.88;1.77;;;20.90;43.00;;;;;;5021940;28;20022;-53
2023/12/15 12:33:32;;;;;;;4.28;1.60;;;20.90;42.90;;;;;;5031849;28;20359;-53
2023/12/15 12:35:59;;;;;;;3.40;1.50;;;20.90;42.90;;;;;;5017244;28;20451;-55
2023/12/15 12:38:25;;;;;;;2.88;1.63;;;20.90;42.90;;;;;;5028379;28;20375;-65
2023/12/15 12:40:51;;;;;;;3.22;1.60;;;20.90;42.90;;;;;;5049939;28;20037;-56
2023/12/15 12:43:19;;;;;;;3.22;1.60;;;20.90;42.80;;;;;;5034651;28;20030;-53